Terminal Aerodrome Forecast
Issued by NWS Omaha/Valley, NE

Home | Current Version | Previous Version | Text Only | Print | Product List | Glossary On
Versions: 1 2 3 4 5 6 7 8 9 10 11 12 13 14 15 16 17 18 19 20 21
000
FTUS43 KOAX 310520
TAFOMA
TAF
KOMA 310520Z 3106/0106 16010KT P6SM SCT070 BKN250
     FM311000 31007KT P6SM -SHRA SCT050 BKN080
      TEMPO 3110/3112 -TSRA SCT050CB BKN080
     FM311300 33008KT P6SM BKN100 PROB30 3118/3123 P6SM -TSRA
      SCT050CB BKN080
     FM010000 35008KT P6SM SCT250=

USA.gov is the U.S. government's official web portal to all federal, state and local government web resources and services.